createdAt,value
2023-05-13T00:01:50.219Z,9.33
2023-05-13T00:04:32.219Z,8.10
2023-05-13T00:07:24.241Z,8.82
2023-05-13T00:10:02.369Z,9.10
2023-05-13T00:12:36.652Z,11.30
2023-05-13T00:15:13.529Z,8.85
2023-05-13T00:17:52.074Z,5.03
2023-05-13T00:20:28.940Z,7.93
2023-05-13T00:23:11.603Z,10.18
2023-05-13T00:25:51.610Z,5.72
2023-05-13T00:28:28.167Z,7.60
2023-05-13T00:31:06.996Z,7.85
2023-05-13T00:33:44.438Z,9.03
2023-05-13T00:36:22.869Z,7.57
2023-05-13T00:39:02.759Z,8.03
2023-05-13T00:41:42.440Z,11.27
2023-05-13T00:44:18.544Z,7.05
2023-05-13T00:49:29.415Z,6.20
2023-05-13T00:52:07.828Z,8.80
2023-05-13T00:54:48.500Z,6.65
2023-05-13T00:57:28.185Z,6.63
2023-05-13T01:00:07.436Z,11.35
2023-05-13T01:02:47.246Z,7.33
2023-05-13T01:05:30.426Z,6.75
2023-05-13T01:08:10.534Z,6.10
2023-05-13T01:10:51.997Z,8.37
2023-05-13T01:13:29.315Z,6.30
2023-05-13T01:16:09.217Z,8.60
2023-05-13T01:18:53.229Z,8.27
2023-05-13T01:21:27.082Z,5.88
2023-05-13T01:24:10.058Z,8.47
2023-05-13T01:26:49.041Z,6.10
2023-05-13T01:29:28.223Z,6.90
2023-05-13T01:32:05.398Z,12.07
2023-05-13T01:34:41.748Z,12.55
2023-05-13T01:37:17.965Z,11.18
2023-05-13T01:39:57.004Z,7.40
2023-05-13T01:42:34.830Z,5.93
2023-05-13T01:45:17.033Z,9.70
2023-05-13T01:47:56.749Z,7.03
2023-05-13T01:50:35.330Z,9.30
2023-05-13T01:53:12.541Z,6.20
2023-05-13T01:55:51.497Z,7.90
2023-05-13T01:58:30.412Z,7.83
2023-05-13T02:01:06.271Z,9.13
2023-05-13T02:03:44.643Z,7.40
2023-05-13T02:06:24.800Z,7.40
2023-05-13T02:09:03.070Z,9.87
2023-05-13T02:11:42.695Z,6.53
2023-05-13T02:14:20.990Z,7.00
2023-05-13T02:16:58.041Z,10.50
2023-05-13T02:19:36.985Z,6.68
2023-05-13T02:22:13.328Z,7.60
2023-05-13T02:24:49.331Z,6.87
2023-05-13T02:30:11.380Z,7.43
2023-05-13T02:32:45.041Z,10.35
2023-05-13T02:35:22.727Z,7.43
2023-05-13T02:38:00.227Z,7.28
2023-05-13T02:40:36.234Z,9.57
2023-05-13T02:43:14.559Z,8.77
2023-05-13T02:46:00.473Z,8.68
2023-05-13T02:48:38.172Z,7.50
2023-05-13T02:51:16.926Z,8.15
2023-05-13T02:53:51.872Z,9.80
2023-05-13T02:56:28.087Z,6.55
2023-05-13T02:59:07.313Z,13.75
2023-05-13T03:01:45.094Z,10.85
2023-05-13T03:04:21.173Z,10.65
2023-05-13T03:06:59.796Z,10.65
2023-05-13T03:09:35.477Z,5.57
2023-05-13T03:12:13.796Z,8.00
2023-05-13T03:14:49.270Z,6.60
2023-05-13T03:17:31.248Z,7.97
2023-05-13T03:20:11.363Z,8.05
2023-05-13T03:22:47.588Z,9.33
2023-05-13T03:25:24.676Z,10.98
2023-05-13T03:28:07.749Z,7.65
2023-05-13T03:30:47.663Z,5.90
2023-05-13T03:33:31.809Z,11.80
2023-05-13T03:36:08.853Z,10.27
2023-05-13T03:38:47.422Z,7.22
2023-05-13T03:41:23.208Z,6.70
2023-05-13T03:44:00.895Z,8.20
2023-05-13T03:46:40.629Z,10.52
2023-05-13T03:49:22.751Z,7.63
2023-05-13T03:51:58.350Z,11.48
2023-05-13T03:54:39.540Z,9.43
2023-05-13T03:57:14.228Z,9.67
2023-05-13T03:59:54.793Z,8.73
2023-05-13T04:02:33.598Z,9.85
2023-05-13T04:05:15.070Z,10.40
2023-05-13T04:07:53.059Z,10.60
2023-05-13T04:10:30.872Z,10.20
2023-05-13T04:13:10.134Z,9.43
2023-05-13T04:15:48.322Z,10.30
2023-05-13T04:18:29.971Z,7.93
2023-05-13T04:21:13.401Z,11.27
2023-05-13T04:23:50.529Z,10.80
2023-05-13T04:26:30.738Z,10.68
2023-05-13T04:29:10.603Z,12.82
2023-05-13T04:31:50.319Z,9.23
2023-05-13T04:34:25.457Z,14.70
2023-05-13T04:37:09.221Z,8.82
2023-05-13T04:39:46.784Z,11.00
2023-05-13T04:42:23.645Z,15.20
2023-05-13T04:45:01.162Z,7.07
2023-05-13T04:47:38.484Z,12.52
2023-05-13T04:50:15.913Z,10.93
2023-05-13T04:52:58.536Z,10.63
2023-05-13T04:55:35.777Z,11.87
2023-05-13T04:58:15.380Z,8.25
2023-05-13T05:00:51.075Z,12.27
2023-05-13T05:03:27.317Z,13.75
2023-05-13T05:06:04.862Z,11.85
2023-05-13T05:08:45.446Z,6.97
2023-05-13T05:11:22.001Z,8.20
2023-05-13T05:19:10.550Z,5.55
2023-05-13T05:21:47.802Z,8.98
2023-05-13T05:24:33.154Z,7.45
2023-05-13T05:27:14.084Z,7.53
2023-05-13T05:29:53.199Z,8.95
2023-05-13T05:32:30.987Z,8.38
2023-05-13T05:35:12.453Z,11.50
2023-05-13T05:37:53.936Z,6.32
2023-05-13T05:40:36.099Z,11.88
2023-05-13T05:43:12.117Z,11.45
2023-05-13T05:45:51.554Z,7.90
2023-05-13T05:48:33.782Z,5.85
2023-05-13T05:51:14.436Z,9.60
2023-05-13T05:53:54.507Z,11.07
2023-05-13T05:56:36.802Z,7.50
2023-05-13T05:59:17.020Z,7.65
2023-05-13T06:02:02.000Z,10.30
2023-05-13T06:04:46.233Z,8.95
2023-05-13T06:07:28.277Z,8.23
2023-05-13T06:10:16.143Z,7.82
2023-05-13T06:13:02.262Z,6.80
2023-05-13T06:18:53.664Z,11.32
2023-05-13T06:27:53.518Z,13.30
2023-05-13T06:30:37.165Z,9.50
2023-05-13T06:33:13.155Z,6.25
2023-05-13T06:38:48.731Z,12.57
2023-05-13T06:41:24.330Z,7.97
2023-05-13T06:44:05.448Z,10.75
2023-05-13T06:46:43.675Z,10.35
2023-05-13T06:49:24.686Z,8.32
2023-05-13T06:52:17.113Z,5.80
2023-05-13T06:55:00.297Z,6.25
2023-05-13T06:57:43.249Z,9.20
2023-05-13T07:00:23.495Z,8.30
2023-05-13T07:03:06.770Z,9.07
2023-05-13T07:05:54.584Z,10.63
2023-05-13T07:08:34.195Z,8.88
2023-05-13T07:11:17.766Z,6.40
2023-05-13T07:13:53.768Z,9.27
2023-05-13T07:16:37.260Z,10.27
2023-05-13T07:19:24.722Z,7.53
2023-05-13T07:22:03.658Z,7.72
2023-05-13T07:24:46.792Z,9.75
2023-05-13T07:27:39.690Z,6.88
2023-05-13T07:30:18.818Z,7.50
2023-05-13T07:33:04.441Z,7.00
2023-05-13T07:35:39.271Z,6.85
2023-05-13T07:38:19.551Z,12.10
2023-05-13T07:41:14.014Z,8.02
2023-05-13T07:43:59.791Z,7.50
2023-05-13T07:46:53.472Z,9.10
2023-05-13T07:49:36.460Z,11.00
2023-05-13T07:52:53.045Z,13.40
2023-05-13T07:58:21.050Z,11.90
2023-05-13T08:01:01.890Z,6.63
2023-05-13T08:12:52.998Z,15.10
2023-05-13T08:15:41.422Z,9.98
2023-05-13T08:18:38.880Z,6.65
2023-05-13T08:21:25.533Z,8.05
2023-05-13T08:24:15.484Z,7.50
2023-05-13T08:27:13.456Z,8.35
2023-05-13T08:32:48.700Z,8.40
2023-05-13T08:38:26.621Z,10.68
2023-05-13T08:41:10.578Z,8.60
2023-05-13T08:43:47.215Z,7.50
2023-05-13T08:58:24.172Z,16.02
2023-05-13T09:01:06.032Z,11.30
2023-05-13T09:03:46.251Z,16.27
2023-05-13T09:06:37.190Z,18.33
2023-05-13T09:09:16.079Z,12.60
2023-05-13T09:11:52.159Z,22.98
2023-05-13T09:24:16.749Z,7.72
2023-05-13T09:26:55.588Z,8.00
2023-05-13T09:29:32.892Z,5.65
2023-05-13T09:32:11.970Z,5.88
2023-05-13T09:34:51.947Z,6.70
2023-05-13T09:40:35.261Z,8.23
2023-05-13T09:43:15.881Z,6.90
2023-05-13T09:45:58.764Z,7.40
2023-05-13T09:48:50.404Z,5.60
2023-05-13T09:51:35.605Z,4.20
2023-05-13T09:54:17.660Z,4.40
2023-05-13T09:57:13.256Z,6.95
2023-05-13T09:59:54.768Z,5.30
2023-05-13T10:02:36.102Z,5.25
2023-05-13T10:05:15.946Z,4.78
2023-05-13T10:11:00.197Z,4.57
2023-05-13T10:13:42.420Z,5.80
2023-05-13T10:16:34.299Z,5.40
2023-05-13T11:04:53.149Z,5.38
2023-05-13T11:33:00.681Z,7.78
2023-05-13T11:35:46.511Z,6.67
2023-05-13T11:38:38.715Z,3.72
2023-05-13T11:41:18.406Z,7.60
2023-05-13T11:43:56.221Z,4.10
2023-05-13T11:46:36.386Z,2.75
2023-05-13T11:49:13.612Z,7.15
2023-05-13T11:52:21.967Z,6.30
2023-05-13T11:55:10.752Z,8.32
2023-05-13T11:58:01.955Z,3.30
2023-05-13T12:00:56.185Z,7.97
2023-05-13T12:03:40.904Z,13.82
2023-05-13T12:06:16.774Z,4.38
2023-05-13T12:08:57.331Z,3.83
2023-05-13T12:11:34.076Z,2.72
2023-05-13T12:14:14.366Z,5.60
2023-05-13T12:16:52.616Z,2.53
2023-05-13T12:19:34.706Z,10.63
2023-05-13T12:22:15.541Z,7.40
2023-05-13T12:25:00.460Z,6.10
2023-05-13T12:27:36.342Z,4.93
2023-05-13T12:30:20.518Z,10.85
2023-05-13T12:33:06.569Z,21.95
2023-05-13T12:35:43.330Z,9.35
2023-05-13T12:38:23.209Z,4.05
2023-05-13T12:41:01.533Z,6.10
2023-05-13T12:43:41.488Z,5.90
2023-05-13T12:46:21.704Z,3.90
2023-05-13T12:49:02.894Z,9.45
2023-05-13T12:51:40.604Z,7.07
2023-05-13T12:54:17.637Z,2.40
2023-05-13T12:57:10.152Z,4.13
2023-05-13T12:59:58.537Z,7.55
2023-05-13T13:02:39.915Z,6.63
2023-05-13T13:05:21.023Z,7.40
2023-05-13T13:08:25.007Z,9.25
2023-05-13T13:13:59.112Z,4.40
2023-05-13T13:16:40.327Z,3.35
2023-05-13T13:19:28.236Z,6.55
2023-05-13T13:22:11.010Z,3.70
2023-05-13T13:24:58.277Z,9.00
2023-05-13T13:27:43.372Z,5.13
2023-05-13T13:30:21.571Z,7.72
2023-05-13T13:33:12.855Z,6.40
2023-05-13T13:39:03.018Z,5.40
2023-05-13T15:45:07.860Z,10.40
2023-05-13T17:57:36.925Z,8.35
2023-05-13T18:15:57.431Z,14.40
2023-05-13T19:34:46.386Z,11.10
2023-05-13T19:50:04.618Z,16.40
2023-05-13T19:52:40.947Z,18.05
2023-05-13T19:58:38.370Z,17.05
2023-05-13T20:01:21.695Z,12.63
2023-05-13T20:04:00.202Z,17.20
2023-05-13T20:06:45.364Z,16.73
2023-05-13T20:09:24.081Z,18.85
2023-05-13T20:12:05.647Z,16.92
2023-05-13T20:14:52.154Z,13.73
2023-05-13T20:20:33.250Z,13.40
2023-05-13T20:23:17.001Z,14.75
2023-05-13T20:25:57.349Z,14.90
2023-05-13T20:28:35.103Z,13.35
2023-05-13T20:31:12.295Z,12.82
2023-05-13T20:33:49.891Z,19.35
2023-05-13T20:36:31.885Z,13.98
2023-05-13T20:39:06.992Z,14.25
2023-05-13T20:41:47.254Z,15.48
2023-05-13T20:44:22.638Z,15.35
2023-05-13T20:46:58.192Z,11.00
2023-05-13T20:49:39.285Z,14.20
2023-05-13T20:52:19.935Z,13.50
2023-05-13T20:54:55.572Z,12.07
2023-05-13T20:57:36.960Z,12.80
2023-05-13T21:00:15.078Z,12.70
2023-05-13T21:02:54.465Z,13.50
2023-05-13T21:05:31.606Z,14.07
2023-05-13T21:08:24.027Z,15.85
2023-05-13T21:11:01.905Z,16.00
2023-05-13T21:13:40.557Z,16.90
2023-05-13T21:16:17.286Z,12.47
2023-05-13T21:18:54.045Z,16.83
2023-05-13T21:21:33.964Z,16.35
2023-05-13T21:24:10.212Z,17.47
2023-05-13T21:26:50.106Z,16.00
2023-05-13T21:29:34.823Z,15.97
2023-05-13T21:32:13.592Z,15.48
2023-05-13T21:34:50.052Z,11.80
2023-05-13T21:37:27.115Z,12.73
2023-05-13T21:40:04.308Z,15.50
2023-05-13T21:42:40.633Z,14.40
2023-05-13T21:45:21.365Z,13.57
2023-05-13T21:47:57.270Z,15.93
2023-05-13T21:53:10.451Z,14.13
2023-05-13T21:55:46.023Z,13.73
2023-05-13T22:01:04.585Z,19.02
2023-05-13T22:03:41.166Z,16.80
2023-05-13T22:06:18.896Z,13.63
2023-05-13T22:08:57.957Z,13.85
2023-05-13T22:11:33.857Z,14.30
2023-05-13T22:14:12.578Z,15.90
2023-05-13T22:17:07.200Z,14.75
2023-05-13T22:19:44.191Z,14.68
2023-05-13T22:22:24.251Z,19.42
2023-05-13T22:25:00.791Z,15.02
2023-05-13T22:27:39.302Z,13.95
2023-05-13T22:30:17.272Z,12.97
2023-05-13T22:32:59.504Z,14.80
2023-05-13T22:35:37.093Z,13.38
2023-05-13T22:38:13.982Z,14.77
2023-05-13T22:40:53.463Z,12.73
2023-05-13T22:43:29.798Z,12.80
2023-05-13T22:46:08.553Z,14.10
2023-05-13T22:48:42.705Z,14.33
2023-05-13T22:51:21.486Z,17.87
2023-05-13T22:53:56.954Z,14.18
2023-05-13T22:59:29.746Z,12.52
2023-05-13T23:02:07.716Z,13.93
2023-05-13T23:04:44.276Z,12.93
2023-05-13T23:16:01.611Z,16.10
2023-05-13T23:18:37.852Z,15.10
